createdAt,value
2022-12-03T00:02:23.527Z,99959.56
2022-12-03T00:04:50.788Z,99960.63
2022-12-03T00:07:18.036Z,99954.59
2022-12-03T00:09:44.936Z,99967.44
2022-12-03T00:12:12.064Z,99954.19
2022-12-03T00:14:44.409Z,99964.00
2022-12-03T00:17:11.670Z,99958.69
2022-12-03T00:19:38.689Z,99960.53
2022-12-03T00:22:05.498Z,99969.84
2022-12-03T00:24:32.439Z,99966.06
2022-12-03T00:26:59.477Z,99966.22
2022-12-03T00:29:26.353Z,99968.78
2022-12-03T00:31:53.394Z,99951.78
2022-12-03T00:34:20.569Z,99958.47
2022-12-03T00:36:47.462Z,99957.47
2022-12-03T00:39:18.593Z,99961.19
2022-12-03T00:41:45.449Z,99961.91
2022-12-03T00:44:12.465Z,99961.84
2022-12-03T00:46:39.519Z,99957.81
2022-12-03T00:49:06.760Z,99963.00
2022-12-03T00:51:33.649Z,99966.56
2022-12-03T00:54:00.717Z,99965.81
2022-12-03T00:56:27.679Z,99966.38
2022-12-03T00:58:54.555Z,99969.94
2022-12-03T01:01:21.542Z,99969.34
2022-12-03T01:03:53.807Z,99968.72
2022-12-03T01:06:20.675Z,99975.22
2022-12-03T01:08:47.596Z,99970.81
2022-12-03T01:11:32.823Z,99979.22
2022-12-03T01:13:59.912Z,99974.97
2022-12-03T01:16:26.749Z,99980.25
2022-12-03T01:18:53.784Z,99983.53
2022-12-03T01:21:20.786Z,99978.50
2022-12-03T01:23:47.656Z,99981.47
2022-12-03T01:26:14.630Z,99990.38
2022-12-03T01:28:44.169Z,99991.31
2022-12-03T01:31:29.549Z,99992.13
2022-12-03T01:33:56.608Z,99987.09
2022-12-03T01:36:23.453Z,99993.72
2022-12-03T01:38:50.252Z,99994.53
2022-12-03T01:41:18.788Z,99987.00
2022-12-03T01:43:46.525Z,99987.09
2022-12-03T01:46:26.334Z,99982.41
2022-12-03T01:48:55.892Z,99983.31
2022-12-03T01:51:23.457Z,99982.66
2022-12-03T01:53:50.815Z,99980.81
2022-12-03T01:56:18.891Z,99981.38
2022-12-03T01:58:48.711Z,99977.44
2022-12-03T02:01:19.028Z,99971.84
2022-12-03T02:03:46.798Z,99970.41
2022-12-03T02:06:19.354Z,99981.22
2022-12-03T02:08:47.994Z,99972.81
2022-12-03T02:11:35.541Z,99977.28
2022-12-03T02:14:05.587Z,99966.22
2022-12-03T02:16:36.264Z,99966.72
2022-12-03T02:19:05.302Z,99968.16
2022-12-03T02:21:47.756Z,99968.50
2022-12-03T02:24:28.756Z,99967.44
2022-12-03T02:26:55.566Z,99960.78
2022-12-03T02:29:23.423Z,99960.78
2022-12-03T02:31:50.486Z,99955.50
2022-12-03T02:34:40.688Z,99957.88
2022-12-03T02:37:14.909Z,99958.22
2022-12-03T02:39:50.290Z,99953.94
2022-12-03T02:42:37.754Z,99965.41
2022-12-03T02:45:39.867Z,99958.63
2022-12-03T02:48:23.930Z,99960.44
2022-12-03T02:50:53.696Z,99947.28
2022-12-03T02:53:27.886Z,99943.66
2022-12-03T02:55:57.631Z,99951.22
2022-12-03T02:58:25.688Z,99945.13
2022-12-03T03:00:54.288Z,99945.44
2022-12-03T03:03:22.811Z,99950.25
2022-12-03T03:05:50.831Z,99946.03
2022-12-03T03:08:19.120Z,99941.75
2022-12-03T03:10:47.756Z,99940.94
2022-12-03T03:13:16.882Z,99948.75
2022-12-03T03:15:44.199Z,99939.19
2022-12-03T03:18:13.646Z,99947.69
2022-12-03T03:20:41.300Z,99954.53
2022-12-03T03:23:11.006Z,99943.63
2022-12-03T03:25:44.405Z,99945.69
2022-12-03T03:28:12.603Z,99949.72
2022-12-03T03:30:41.548Z,99956.09
2022-12-03T03:33:09.635Z,99963.59
2022-12-03T03:35:37.523Z,99962.78
2022-12-03T03:38:05.427Z,99959.41
2022-12-03T03:40:32.797Z,99961.03
2022-12-03T03:43:00.718Z,99960.22
2022-12-03T03:45:29.626Z,99956.75
2022-12-03T03:47:59.458Z,99964.56
2022-12-03T03:50:29.565Z,99958.38
2022-12-03T03:52:57.707Z,99961.19
2022-12-03T03:55:24.917Z,99968.94
2022-12-03T03:57:51.940Z,99969.28
2022-12-03T04:00:19.355Z,99967.53
2022-12-03T04:02:46.641Z,99972.56
2022-12-03T04:05:19.592Z,99963.75
2022-12-03T04:07:47.334Z,99969.69
2022-12-03T04:10:34.277Z,99973.78
2022-12-03T04:13:01.436Z,99979.63
2022-12-03T04:15:28.396Z,99975.28
2022-12-03T04:18:14.289Z,99970.00
2022-12-03T04:20:41.543Z,99969.75
2022-12-03T04:23:08.933Z,99973.06
2022-12-03T04:25:54.562Z,99977.38
2022-12-03T04:28:39.977Z,99967.94
2022-12-03T04:31:28.196Z,99971.91
2022-12-03T04:34:13.870Z,99967.03
2022-12-03T04:36:40.951Z,99961.59
2022-12-03T04:39:07.775Z,99970.91
2022-12-03T04:41:34.592Z,99966.63
2022-12-03T04:44:20.333Z,99971.50
2022-12-03T04:46:47.216Z,99966.31
2022-12-03T04:49:14.073Z,99968.16
2022-12-03T04:51:40.953Z,99967.94
2022-12-03T04:54:08.095Z,99972.31
2022-12-03T04:56:35.003Z,99971.38
2022-12-03T04:59:01.985Z,99981.56
2022-12-03T05:01:29.171Z,99981.56
2022-12-03T05:03:56.235Z,99981.78
2022-12-03T05:06:23.207Z,99970.09
2022-12-03T05:08:50.075Z,99971.75
2022-12-03T05:11:16.936Z,99975.94
2022-12-03T05:13:43.877Z,99969.13
2022-12-03T05:16:10.845Z,99971.75
2022-12-03T05:18:38.053Z,99982.56
2022-12-03T05:21:05.333Z,99981.44
2022-12-03T05:23:32.194Z,99981.22
2022-12-03T05:25:59.327Z,99986.44
2022-12-03T05:28:26.456Z,99975.78
2022-12-03T05:30:53.341Z,99975.06
2022-12-03T05:33:20.720Z,99981.97
2022-12-03T05:35:47.868Z,99984.13
2022-12-03T05:38:14.899Z,99984.44
2022-12-03T05:40:42.064Z,99989.31
2022-12-03T05:43:09.045Z,99994.13
2022-12-03T05:45:40.811Z,99993.19
2022-12-03T05:48:10.614Z,99996.63
2022-12-03T05:50:39.653Z,99989.16
2022-12-03T05:53:07.102Z,100004.16
2022-12-03T05:55:33.894Z,100004.31
2022-12-03T05:58:01.140Z,100005.69
2022-12-03T06:00:30.933Z,100012.75
2022-12-03T06:02:58.577Z,100012.09
2022-12-03T06:05:25.872Z,100011.34
2022-12-03T06:07:53.197Z,100008.50
2022-12-03T06:10:23.835Z,100004.56
2022-12-03T06:12:51.436Z,100005.75
2022-12-03T06:15:19.096Z,100012.97
2022-12-03T06:17:46.345Z,100003.97
2022-12-03T06:20:15.578Z,100009.34
2022-12-03T06:22:45.074Z,100004.28
2022-12-03T06:25:12.841Z,100014.06
2022-12-03T06:27:40.003Z,100012.22
2022-12-03T06:30:09.016Z,100013.41
2022-12-03T06:32:36.025Z,100017.31
2022-12-03T06:35:03.592Z,100012.50
2022-12-03T06:37:30.467Z,100016.88
2022-12-03T06:39:57.843Z,100027.97
2022-12-03T06:42:24.856Z,100020.75
2022-12-03T06:44:52.548Z,100028.88
2022-12-03T06:47:19.715Z,100032.53
2022-12-03T06:49:46.553Z,100032.97
2022-12-03T06:52:13.644Z,100035.78
2022-12-03T06:54:40.484Z,100029.69
2022-12-03T06:57:07.433Z,100026.53
2022-12-03T06:59:36.494Z,100037.19
2022-12-03T07:02:04.467Z,100034.84
2022-12-03T07:04:33.565Z,100029.72
2022-12-03T07:07:00.597Z,100037.84
2022-12-03T07:09:27.716Z,100036.47
2022-12-03T07:11:54.832Z,100038.53
2022-12-03T07:14:21.930Z,100030.56
2022-12-03T07:16:48.816Z,100041.69
2022-12-03T07:19:15.869Z,100043.63
2022-12-03T07:21:43.476Z,100040.84
2022-12-03T07:24:10.713Z,100045.63
2022-12-03T07:26:37.662Z,100038.75
2022-12-03T07:29:05.686Z,100039.28
2022-12-03T07:31:32.961Z,100032.31
2022-12-03T07:34:00.105Z,100030.78
2022-12-03T07:36:27.002Z,100035.91
2022-12-03T07:38:53.834Z,100025.84
2022-12-03T07:41:21.017Z,100020.50
2022-12-03T07:43:50.744Z,100029.16
2022-12-03T07:46:17.717Z,100030.97
2022-12-03T07:48:45.027Z,100024.72
2022-12-03T07:51:15.195Z,100028.63
2022-12-03T07:53:42.720Z,100026.44
2022-12-03T07:56:09.955Z,100028.25
2022-12-03T07:58:37.136Z,100031.88
2022-12-03T08:01:04.114Z,100021.69
2022-12-03T08:03:31.014Z,100028.16
2022-12-03T08:05:57.841Z,100033.97
2022-12-03T08:08:25.474Z,100028.50
2022-12-03T08:10:52.451Z,100037.47
2022-12-03T08:13:19.727Z,100032.16
2022-12-03T08:15:46.993Z,100029.06
2022-12-03T08:18:19.795Z,100031.84
2022-12-03T08:20:49.035Z,100032.16
2022-12-03T08:23:22.977Z,100039.25
2022-12-03T08:25:51.978Z,100032.75
2022-12-03T08:28:24.255Z,100039.97
2022-12-03T08:31:12.677Z,100035.34
2022-12-03T08:33:40.642Z,100047.47
2022-12-03T08:36:23.666Z,100038.38
2022-12-03T08:39:02.364Z,100046.91
2022-12-03T08:41:48.754Z,100035.72
2022-12-03T08:44:24.664Z,100025.53
2022-12-03T08:47:23.765Z,100046.31
2022-12-03T08:50:01.583Z,100036.91
2022-12-03T08:52:33.843Z,100037.13
2022-12-03T08:55:11.223Z,100039.38
2022-12-03T08:57:38.059Z,100046.03
2022-12-03T09:00:22.167Z,100041.47
2022-12-03T09:02:52.504Z,100033.78
2022-12-03T09:05:21.228Z,100030.25
2022-12-03T09:07:48.281Z,100037.47
2022-12-03T09:10:15.805Z,100038.56
2022-12-03T09:12:42.850Z,100018.22
2022-12-03T09:15:10.237Z,100034.19
2022-12-03T09:17:37.588Z,100029.44
2022-12-03T09:20:05.875Z,100006.50
2022-12-03T09:22:32.916Z,100016.38
2022-12-03T09:24:59.738Z,100021.94
2022-12-03T09:27:27.044Z,100010.19
2022-12-03T09:29:54.096Z,100021.75
2022-12-03T09:32:21.041Z,100009.53
2022-12-03T09:34:48.172Z,100011.59
2022-12-03T09:37:15.028Z,100025.22
2022-12-03T09:39:41.941Z,100008.25
2022-12-03T09:42:09.594Z,100005.50
2022-12-03T09:44:38.154Z,100007.28
2022-12-03T09:47:06.025Z,99981.84
2022-12-03T09:49:35.865Z,99993.97
2022-12-03T09:52:05.605Z,99981.91
2022-12-03T09:54:33.312Z,99991.56
2022-12-03T09:57:03.537Z,99974.56
2022-12-03T09:59:33.770Z,99974.09
2022-12-03T10:02:01.984Z,99978.22
2022-12-03T10:04:30.474Z,99979.44
2022-12-03T10:06:59.805Z,99980.06
2022-12-03T10:09:29.689Z,99959.63
2022-12-03T10:12:00.216Z,99964.44
2022-12-03T10:14:28.605Z,99951.84
2022-12-03T10:16:55.980Z,99964.56
2022-12-03T10:19:26.574Z,99949.53
2022-12-03T10:21:53.796Z,99951.66
2022-12-03T10:24:29.990Z,99946.91
2022-12-03T10:26:59.804Z,99945.94
2022-12-03T10:29:35.966Z,99944.19
2022-12-03T10:32:07.395Z,99941.03
2022-12-03T10:34:42.556Z,99968.16
2022-12-03T10:37:22.737Z,99943.03
2022-12-03T10:40:10.861Z,99960.16
2022-12-03T10:42:40.636Z,99943.63
2022-12-03T10:45:23.085Z,99937.47
2022-12-03T10:48:07.590Z,99924.06
2022-12-03T10:50:35.481Z,99945.31
2022-12-03T10:53:02.671Z,99922.47
2022-12-03T10:55:34.496Z,99919.19
2022-12-03T10:58:01.446Z,99919.13
2022-12-03T11:00:28.358Z,99912.19
2022-12-03T11:02:57.228Z,99902.72
2022-12-03T11:05:28.669Z,99908.75
2022-12-03T11:07:56.627Z,99930.88
2022-12-03T11:10:24.421Z,99911.94
2022-12-03T11:13:28.752Z,99903.50
2022-12-03T11:15:56.819Z,99903.16
2022-12-03T11:18:39.302Z,99882.75
2022-12-03T11:21:12.865Z,99888.75
2022-12-03T11:23:45.872Z,99890.66
2022-12-03T11:26:39.276Z,99880.22
2022-12-03T11:29:14.909Z,99885.50
2022-12-03T11:31:49.020Z,99880.31
2022-12-03T11:34:20.034Z,99883.31
2022-12-03T11:37:12.100Z,99891.66
2022-12-03T11:39:45.392Z,99881.91
2022-12-03T11:42:25.641Z,99877.22
2022-12-03T11:45:04.920Z,99887.25
2022-12-03T11:47:39.895Z,99878.56
2022-12-03T11:50:39.102Z,99888.84
2022-12-03T11:53:17.755Z,99876.34
2022-12-03T11:55:49.287Z,99879.59
2022-12-03T11:58:30.681Z,99859.69
2022-12-03T12:00:59.969Z,99868.75
2022-12-03T12:03:32.862Z,99878.16
2022-12-03T12:06:07.860Z,99868.16
2022-12-03T12:08:37.064Z,99870.41
2022-12-03T12:11:04.678Z,99870.56
2022-12-03T12:13:31.839Z,99861.22
2022-12-03T12:16:00.455Z,99883.34
2022-12-03T12:18:37.154Z,99858.41
2022-12-03T12:21:22.562Z,99861.69
2022-12-03T12:23:52.024Z,99862.81
2022-12-03T12:26:19.161Z,99855.97
2022-12-03T12:28:46.153Z,99864.66
2022-12-03T12:31:13.162Z,99864.22
2022-12-03T12:33:40.793Z,99866.31
2022-12-03T12:36:11.006Z,99871.72
2022-12-03T12:38:41.536Z,99857.88
2022-12-03T12:41:10.356Z,99867.00
2022-12-03T12:43:39.963Z,99853.75
2022-12-03T12:46:46.014Z,99857.63
2022-12-03T12:49:01.295Z,99851.13
2022-12-03T12:51:28.347Z,99841.72
2022-12-03T12:53:59.874Z,99859.38
2022-12-03T12:56:31.806Z,99865.66
2022-12-03T12:59:20.724Z,99846.28
2022-12-03T13:01:49.712Z,99857.75
2022-12-03T13:04:24.523Z,99849.91
2022-12-03T13:06:54.274Z,99845.13
2022-12-03T13:09:27.498Z,99846.91
2022-12-03T13:11:57.293Z,99857.63
2022-12-03T13:14:27.413Z,99846.72
2022-12-03T13:16:57.514Z,99852.63
2022-12-03T13:19:43.590Z,99853.38
2022-12-03T13:22:23.219Z,99859.31
2022-12-03T13:24:51.955Z,99846.16
2022-12-03T13:27:19.642Z,99850.44
2022-12-03T13:29:58.725Z,99846.56
2022-12-03T13:32:34.572Z,99848.41
2022-12-03T13:35:10.506Z,99842.03
2022-12-03T13:37:38.935Z,99850.31
2022-12-03T13:40:36.073Z,99847.81
2022-12-03T13:43:19.189Z,99852.31
2022-12-03T13:45:51.635Z,99852.94
2022-12-03T13:48:30.527Z,99852.22
2022-12-03T13:51:02.695Z,99846.22
2022-12-03T13:53:35.445Z,99853.00
2022-12-03T13:56:36.549Z,99853.00
2022-12-03T13:59:04.554Z,99852.63
2022-12-03T14:01:31.517Z,99858.75
2022-12-03T14:03:59.097Z,99845.38
2022-12-03T14:06:26.546Z,99859.75
2022-12-03T14:08:55.014Z,99857.41
2022-12-03T14:11:40.597Z,99857.19
2022-12-03T14:14:07.666Z,99856.34
2022-12-03T14:16:34.598Z,99859.09
2022-12-03T14:19:01.634Z,99857.63
2022-12-03T14:21:28.650Z,99859.38
2022-12-03T14:23:55.749Z,99858.94
2022-12-03T14:26:23.549Z,99858.78
2022-12-03T14:28:50.840Z,99869.97
2022-12-03T14:31:18.843Z,99862.28
2022-12-03T14:33:45.724Z,99863.25
2022-12-03T14:36:13.508Z,99866.47
2022-12-03T14:38:40.421Z,99870.59
2022-12-03T14:41:28.304Z,99867.41
2022-12-03T14:43:55.349Z,99867.97
2022-12-03T14:46:23.013Z,99862.59
2022-12-03T14:48:50.337Z,99879.63
2022-12-03T14:51:17.835Z,99871.06
2022-12-03T14:53:45.477Z,99878.78
2022-12-03T14:56:13.873Z,99865.38
2022-12-03T14:58:40.901Z,99875.72
2022-12-03T15:01:08.022Z,99877.63
2022-12-03T15:03:36.434Z,99881.56
2022-12-03T15:06:05.533Z,99880.91
2022-12-03T15:08:32.685Z,99888.16
2022-12-03T15:10:59.966Z,99889.09
2022-12-03T15:13:27.766Z,99884.06
2022-12-03T15:15:54.815Z,99887.97
2022-12-03T15:18:21.985Z,99887.03
2022-12-03T15:20:50.357Z,99897.69
2022-12-03T15:23:17.359Z,99881.06
2022-12-03T15:25:45.485Z,99882.22
2022-12-03T15:28:12.964Z,99885.72
2022-12-03T15:30:40.444Z,99894.84
2022-12-03T15:33:07.557Z,99895.31
2022-12-03T15:35:34.904Z,99892.72
2022-12-03T15:38:02.061Z,99884.47
2022-12-03T15:40:29.233Z,99903.03
2022-12-03T15:42:56.082Z,99899.25
2022-12-03T15:45:25.355Z,99885.63
2022-12-03T15:47:52.232Z,99902.88
2022-12-03T15:50:19.075Z,99905.50
2022-12-03T15:52:46.050Z,99903.75
2022-12-03T15:55:13.433Z,99897.13
2022-12-03T15:57:40.469Z,99892.13
2022-12-03T16:00:10.691Z,99897.97
2022-12-03T16:02:38.100Z,99909.16
2022-12-03T16:05:13.030Z,99906.66
2022-12-03T16:07:40.616Z,99906.91
2022-12-03T16:10:11.470Z,99909.75
2022-12-03T16:12:38.545Z,99910.72
2022-12-03T16:15:06.720Z,99898.94
2022-12-03T16:17:33.830Z,99907.03
2022-12-03T16:20:00.886Z,99911.59
2022-12-03T16:22:29.560Z,99912.00
2022-12-03T16:24:57.584Z,99920.41
2022-12-03T16:27:25.974Z,99912.78
2022-12-03T16:29:54.181Z,99914.47
2022-12-03T16:32:22.855Z,99919.91
2022-12-03T16:34:50.992Z,99913.53
2022-12-03T16:37:17.967Z,99912.91
2022-12-03T16:39:47.177Z,99919.06
2022-12-03T16:42:17.454Z,99911.47
2022-12-03T16:45:03.287Z,99916.75
2022-12-03T16:47:34.179Z,99921.38
2022-12-03T16:50:04.881Z,99914.28
2022-12-03T16:52:31.812Z,99917.59
2022-12-03T16:55:00.045Z,99925.91
2022-12-03T16:57:33.113Z,99925.97
2022-12-03T17:00:01.084Z,99924.19
2022-12-03T17:02:28.341Z,99919.34
2022-12-03T17:04:55.785Z,99927.69
2022-12-03T17:07:23.526Z,99924.16
2022-12-03T17:09:50.586Z,99923.06
2022-12-03T17:12:17.668Z,99931.59
2022-12-03T17:14:44.569Z,99927.41
2022-12-03T17:17:11.426Z,99926.47
2022-12-03T17:19:38.482Z,99934.41
2022-12-03T17:22:05.425Z,99940.63
2022-12-03T17:24:32.431Z,99938.94
2022-12-03T17:26:59.496Z,99923.47
2022-12-03T17:29:26.649Z,99932.13
2022-12-03T17:31:53.729Z,99931.44
2022-12-03T17:34:20.641Z,99927.41
2022-12-03T17:36:47.580Z,99927.69
2022-12-03T17:39:14.762Z,99933.84
2022-12-03T17:41:41.895Z,99933.50
2022-12-03T17:44:11.361Z,99931.81
2022-12-03T17:46:40.070Z,99933.66
2022-12-03T17:49:07.335Z,99946.91
2022-12-03T17:51:34.228Z,99937.91
2022-12-03T17:54:01.636Z,99938.53
2022-12-03T17:56:29.107Z,99943.84
2022-12-03T17:58:57.375Z,99940.00
2022-12-03T18:01:24.660Z,99959.94
2022-12-03T18:03:52.011Z,99952.63
2022-12-03T18:06:19.030Z,99960.97
2022-12-03T18:08:46.262Z,99959.91
2022-12-03T18:11:13.407Z,99958.47
2022-12-03T18:13:40.597Z,99965.94
2022-12-03T18:16:07.821Z,99970.09
2022-12-03T18:18:35.015Z,99958.41
2022-12-03T18:21:04.328Z,99964.69
2022-12-03T18:23:32.411Z,99960.59
2022-12-03T18:25:59.929Z,99961.44
2022-12-03T18:28:26.943Z,99964.66
2022-12-03T18:30:54.255Z,99969.41
2022-12-03T18:33:23.729Z,99964.16
2022-12-03T18:35:54.539Z,99960.41
2022-12-03T18:38:23.029Z,99948.28
2022-12-03T18:40:53.571Z,99958.31
2022-12-03T18:43:20.611Z,99963.19
2022-12-03T18:45:48.011Z,99965.75
2022-12-03T18:48:18.428Z,99967.00
2022-12-03T18:50:47.109Z,99973.16
2022-12-03T18:53:16.541Z,99967.00
2022-12-03T18:55:45.931Z,99961.34
2022-12-03T18:58:13.968Z,99973.81
2022-12-03T19:00:45.373Z,99963.50
2022-12-03T19:03:15.057Z,99960.78
2022-12-03T19:05:42.165Z,99967.16
2022-12-03T19:08:15.943Z,99974.06
2022-12-03T19:10:43.850Z,99971.16
2022-12-03T19:13:12.209Z,99970.66
2022-12-03T19:15:40.050Z,99970.09
2022-12-03T19:18:08.930Z,99969.44
2022-12-03T19:20:35.990Z,99969.66
2022-12-03T19:23:03.230Z,99959.16
2022-12-03T19:25:31.145Z,99981.41
2022-12-03T19:27:58.257Z,99984.69
2022-12-03T19:30:27.550Z,99974.88
2022-12-03T19:32:57.003Z,99977.78
2022-12-03T19:35:24.425Z,99976.34
2022-12-03T19:37:51.733Z,99967.59
2022-12-03T19:40:19.281Z,99973.81
2022-12-03T19:42:46.184Z,99977.59
2022-12-03T19:45:13.235Z,99976.78
2022-12-03T19:47:40.423Z,99975.31
2022-12-03T19:50:09.893Z,99978.50
2022-12-03T19:52:37.305Z,99971.25
2022-12-03T19:55:05.278Z,99961.69
2022-12-03T19:57:32.181Z,99962.31
2022-12-03T19:59:59.220Z,99970.41
2022-12-03T20:02:26.557Z,99970.25
2022-12-03T20:04:53.538Z,99975.25
2022-12-03T20:07:20.704Z,99965.19
2022-12-03T20:09:50.778Z,99970.13
2022-12-03T20:12:17.696Z,99967.63
2022-12-03T20:14:45.739Z,99973.41
2022-12-03T20:17:12.824Z,99971.84
2022-12-03T20:19:40.131Z,99970.13
2022-12-03T20:22:07.332Z,99975.38
2022-12-03T20:24:34.232Z,99978.06
2022-12-03T20:27:02.479Z,99985.72
2022-12-03T20:29:29.624Z,99981.53
2022-12-03T20:31:56.732Z,99976.38
2022-12-03T20:34:26.849Z,99978.47
2022-12-03T20:36:53.947Z,99989.28
2022-12-03T20:39:21.895Z,99990.25
2022-12-03T20:41:48.870Z,99996.44
2022-12-03T20:44:16.244Z,99999.25
2022-12-03T20:46:43.301Z,100001.97
2022-12-03T20:49:10.220Z,100010.31
2022-12-03T20:51:37.364Z,100007.06
2022-12-03T20:54:04.402Z,100009.31
2022-12-03T20:56:34.895Z,100004.31
2022-12-03T20:59:07.874Z,100011.22
2022-12-03T21:01:36.532Z,100016.22
2022-12-03T21:04:05.049Z,100006.41
2022-12-03T21:06:34.349Z,100014.38
2022-12-03T21:09:01.848Z,100013.63
2022-12-03T21:11:31.743Z,100014.09
2022-12-03T21:13:59.886Z,100014.75
2022-12-03T21:16:59.421Z,100016.97
2022-12-03T21:19:18.479Z,100020.84
2022-12-03T21:21:45.481Z,100022.84
2022-12-03T21:24:13.574Z,100020.28
2022-12-03T21:26:41.371Z,100022.63
2022-12-03T21:29:08.957Z,100015.91
2022-12-03T21:31:37.687Z,100019.78
2022-12-03T21:34:05.463Z,100013.50
2022-12-03T21:36:33.084Z,100023.78
2022-12-03T21:39:01.264Z,100023.19
2022-12-03T21:41:28.386Z,100020.63
2022-12-03T21:43:55.794Z,100024.38
2022-12-03T21:47:11.972Z,100026.91
2022-12-03T21:49:09.864Z,100020.13
2022-12-03T21:51:36.765Z,100023.25
2022-12-03T21:54:03.703Z,100029.41
2022-12-03T21:56:32.180Z,100035.44
2022-12-03T21:58:59.114Z,100033.56
2022-12-03T22:01:26.275Z,100042.88
2022-12-03T22:03:53.324Z,100029.63
2022-12-03T22:06:20.385Z,100034.28
2022-12-03T22:08:47.933Z,100015.38
2022-12-03T22:11:20.352Z,100027.03
2022-12-03T22:13:47.606Z,100032.03
2022-12-03T22:16:17.845Z,100023.63
2022-12-03T22:18:45.843Z,100011.44
2022-12-03T22:21:16.266Z,100016.88
2022-12-03T22:23:43.841Z,100003.56
2022-12-03T22:26:17.085Z,100014.63
2022-12-03T22:28:48.379Z,100015.06
2022-12-03T22:33:32.667Z,100014.13
2022-12-03T22:36:02.266Z,100007.22
2022-12-03T22:38:30.678Z,100004.56
2022-12-03T22:40:58.458Z,99996.75
2022-12-03T22:43:25.746Z,100004.13
2022-12-03T22:45:56.371Z,100005.69
2022-12-03T22:48:24.164Z,100016.25
2022-12-03T22:50:52.705Z,100010.06
2022-12-03T22:53:20.624Z,100008.63
2022-12-03T22:55:58.896Z,100013.91
2022-12-03T22:58:27.258Z,100000.63
2022-12-03T23:00:59.806Z,100006.47
2022-12-03T23:03:29.651Z,99996.25
2022-12-03T23:05:57.756Z,100001.81
2022-12-03T23:08:24.773Z,99995.44
2022-12-03T23:10:52.926Z,99990.81
2022-12-03T23:13:20.768Z,99985.44
2022-12-03T23:15:49.636Z,99988.59
2022-12-03T23:18:17.107Z,99989.22
2022-12-03T23:20:54.965Z,99985.38
2022-12-03T23:23:24.826Z,99995.84
2022-12-03T23:26:02.666Z,99997.09
2022-12-03T23:28:32.672Z,100004.44
2022-12-03T23:30:59.904Z,99996.00
2022-12-03T23:33:27.999Z,99998.91
2022-12-03T23:35:55.302Z,99991.44
2022-12-03T23:38:22.358Z,99988.13
2022-12-03T23:40:49.497Z,99989.94
2022-12-03T23:43:16.842Z,99978.66
2022-12-03T23:45:43.848Z,99981.28
2022-12-03T23:48:11.043Z,99974.59
2022-12-03T23:50:41.557Z,99972.84
2022-12-03T23:53:08.585Z,99985.56
2022-12-03T23:55:39.350Z,99975.56
2022-12-03T23:58:06.196Z,99981.50
